Terminal Aerodrome Forecast
Issued by NWS Norman, OK

Home | Current Version | Previous Version | Text Only | Print | Product List | Glossary On
Versions: 1 2 3 4 5 6 7 8 9 10 11 12 13 14 15 16 17 18 19
000
FTUS44 KOUN 281202 AAA
TAFSPS
TAF AMD
KSPS 281202Z 2812/2912 18006KT 3SM BR BKN002
      TEMPO 2812/2814 1/4SM FG VV001
     FM281500 18006KT P6SM SCT040
     FM290900 15005KT P6SM BKN015=

USA.gov is the U.S. government's official web portal to all federal, state and local government web resources and services.